Air Navigation Services of Czech Republic
Airport: LKKB Updated:  21.01.2020 22:00:26  UTC
 METAR LKKB 21.01. 22:00 ...
METAR LKKB 212200Z 17004KT 130V190 6000 OVC006 M02/M03 Q1037 NOSIG RMK YLO=
 TAF LKKB 21.01. 17:00 AMD
TAF AMD LKKB 211700Z 2118/2218 17008KT 7000 OVC005      BECMG 2119/2121 5000 BR OVC004      BECMG 2121/2123 3000 BR OVC003      TEMPO 2123/2208 1200 BR OVC001      BECMG 2208/2210 28008KT 8000 SCT010      BECMG 2210/2212 32008KT 9999 BKN015=